Time;durP1;ratioP1;P1;durP2;ratioP2;P2;SDS_P1;SDS_P2;PMS_P1;PMS_P2;Temp;Humidity;BMP_temperature;BMP_pressure;BME280_temperature;BME280_humidity;BME280_pressure;Samples;Min_cycle;Max_cycle;Signal;HPM_P1;HPM_P2
2022/08/12 03:42:50;;;;;;;2.58;1.75;;;;;;;17.33;61.08;100546.84;6071900;26;13621864;-87
2022/08/12 04:02:54;;;;;;;1.35;1.25;;;;;;;17.26;61.89;100559.69;6607482;27;34134;-87
2022/08/12 04:05:57;;;;;;;1.50;1.40;;;;;;;17.29;61.94;100564.69;6607398;27;34696;-87
2022/08/12 04:09:00;;;;;;;2.22;1.30;;;;;;;17.32;62.03;100572.41;6607300;27;33718;-87
2022/08/12 04:15:30;;;;;;;1.55;1.35;;;;;;;17.33;61.94;100574.06;6607239;27;34025;-87
2022/08/12 04:18:34;;;;;;;2.10;1.70;;;;;;;17.34;61.88;100575.72;6587551;27;33706;-87
2022/08/12 04:21:38;;;;;;;1.50;1.40;;;;;;;17.33;61.91;100568.63;6607177;27;34191;-87
2022/08/12 04:25:01;;;;;;;1.80;1.70;;;;;;;17.35;61.62;100568.41;6606253;27;34038;-87
2022/08/12 04:28:06;;;;;;;1.70;1.60;;;;;;;17.41;61.25;100565.66;6606704;27;33622;-87
2022/08/12 04:31:15;;;;;;;2.25;1.80;;;;;;;17.38;61.23;100565.25;6609295;27;33559;-87
2022/08/12 04:34:18;;;;;;;1.60;1.50;;;;;;;17.37;61.19;100567.13;6607901;27;33800;-87
2022/08/12 04:37:22;;;;;;;1.48;1.37;;;;;;;17.39;61.25;100575.09;6608289;27;33726;-87
2022/08/12 04:40:28;;;;;;;1.77;1.67;;;;;;;17.51;61.09;100575.22;6608566;27;34038;-87
2022/08/12 04:43:31;;;;;;;5.32;1.60;;;;;;;17.52;60.75;100579.59;6611474;26;35271;-87
2022/08/12 04:46:54;;;;;;;1.37;1.27;;;;;;;17.56;60.84;100583.56;6618593;26;34344;-88
2022/08/12 04:49:58;;;;;;;1.60;1.50;;;;;;;17.71;60.43;100589.53;6627015;26;33882;-87
2022/08/12 04:53:01;;;;;;;2.55;1.60;;;;;;;17.85;60.29;100595.78;6627192;26;34905;-86
2022/08/12 04:56:04;;;;;;;2.00;1.90;;;;;;;17.94;59.69;100599.91;6619037;27;35028;-87
2022/08/12 04:59:07;;;;;;;2.37;1.80;;;;;;;18.07;59.50;100596.22;6607899;27;34119;-87
2022/08/12 05:02:10;;;;;;;1.60;1.50;;;;;;;18.18;59.18;100595.50;6607139;27;34160;-87
2022/08/12 05:05:22;;;;;;;1.65;1.55;;;;;;;18.31;58.75;100608.19;6607991;27;34063;-87
2022/08/12 05:08:25;;;;;;;1.60;1.50;;;;;;;18.45;58.41;100603.44;6610349;27;33926;-87
2022/08/12 05:11:28;;;;;;;1.27;1.25;;;;;;;18.52;58.04;100601.50;6609779;27;33688;-87
2022/08/12 05:14:32;;;;;;;2.12;1.42;;;;;;;18.69;57.73;100609.91;6587744;27;32384;-87
2022/08/12 05:17:42;;;;;;;2.00;1.80;;;;;;;18.78;57.38;100605.88;6607080;27;34331;-87
2022/08/12 05:20:47;;;;;;;25.02;2.55;;;;;;;18.93;56.75;100609.06;6608806;27;33610;-88
2022/08/12 05:23:49;;;;;;;1.95;1.50;;;;;;;19.05;56.38;100608.31;6589351;27;35536;-87
2022/08/12 05:26:53;;;;;;;1.52;1.42;;;;;;;19.10;55.64;100612.03;6586958;27;32789;-87
2022/08/12 05:29:55;;;;;;;2.60;1.60;;;;;;;19.07;55.75;100609.75;6606909;27;35517;-87
2022/08/12 05:33:11;;;;;;;3.67;1.92;;;;;;;19.22;55.31;100612.94;6607670;27;34801;-87
2022/08/12 05:36:15;;;;;;;1.60;1.50;;;;;;;19.33;54.79;100602.28;6607016;27;33818;-87
2022/08/12 05:39:18;;;;;;;1.42;1.33;;;;;;;19.55;54.61;100606.19;6610651;27;35122;-87
2022/08/12 05:42:23;;;;;;;4.75;1.80;;;;;;;19.65;53.79;100602.91;6594378;27;33635;-87
2022/08/12 05:45:36;;;;;;;6.03;2.45;;;;;;;19.75;53.86;100608.66;6580943;27;34397;-86
2022/08/12 05:48:48;;;;;;;2.25;1.70;;;;;;;19.83;53.17;100607.47;6580397;27;34012;-87
2022/08/12 05:51:51;;;;;;;2.40;1.55;;;;;;;19.92;52.82;100606.09;6579975;27;34180;-87
2022/08/12 05:54:53;;;;;;;2.33;1.52;;;;;;;20.00;52.27;100605.75;6581801;27;33931;-87
2022/08/12 05:58:01;;;;;;;2.45;1.52;;;;;;;20.12;52.04;100603.91;6564166;27;32082;-86
2022/08/12 06:01:04;;;;;;;1.98;1.75;;;;;;;20.13;52.16;100611.00;6581174;27;33637;-87
2022/08/12 06:04:28;;;;;;;2.53;2.00;;;;;;;20.17;51.72;100612.19;6580508;27;33952;-91
2022/08/12 06:07:33;;;;;;;1.65;1.55;;;;;;;20.31;51.46;100604.62;6559817;27;33081;-91
2022/08/12 06:10:55;;;;;;;2.58;1.60;;;;;;;20.34;51.27;100608.78;6559235;27;32732;-87
2022/08/12 06:13:58;;;;;;;4.22;1.62;;;;;;;20.61;51.02;100600.97;6560702;27;32241;-88
2022/08/12 06:17:03;;;;;;;5.05;2.15;;;;;;;20.80;50.09;100599.75;6580349;27;34132;-88
2022/08/12 06:20:12;;;;;;;2.33;1.70;;;;;;;21.04;49.82;100599.72;6560732;27;33769;-88
2022/08/12 06:23:31;;;;;;;1.60;1.45;;;;;;;20.97;49.28;100594.38;6580474;27;34601;-88
2022/08/12 06:26:34;;;;;;;2.97;1.70;;;;;;;21.09;49.11;100596.25;6579915;27;33555;-87
2022/08/12 06:29:38;;;;;;;1.87;1.77;;;;;;;21.32;48.63;100598.06;6558800;27;32377;-88
2022/08/12 06:33:05;;;;;;;5.00;1.67;;;;;;;21.45;48.14;100593.19;6559038;27;32251;-88
2022/08/12 06:36:27;;;;;;;3.72;1.80;;;;;;;21.60;47.75;100597.28;6559254;27;32971;-88
2022/08/12 06:39:35;;;;;;;4.50;1.75;;;;;;;21.85;47.25;100595.03;6559314;27;32903;-88
2022/08/12 06:42:50;;;;;;;1.87;1.62;;;;;;;21.99;46.74;100591.94;6578843;27;34422;-88
2022/08/12 06:45:53;;;;;;;4.62;1.60;;;;;;;21.95;46.86;100586.97;6584712;27;33677;-88
2022/08/12 06:48:57;;;;;;;2.03;1.80;;;;;;;22.17;46.41;100597.22;6581597;27;34918;-88
2022/08/12 06:52:03;;;;;;;6.35;2.33;;;;;;;22.22;46.30;100599.22;6563663;27;34021;-88
2022/08/12 06:55:06;;;;;;;4.35;1.85;;;;;;;22.17;46.20;100603.56;6582846;27;34832;-88
2022/08/12 06:58:10;;;;;;;1.83;1.73;;;;;;;22.11;46.25;100599.03;6580430;27;33921;-91
2022/08/12 07:01:13;;;;;;;4.25;2.05;;;;;;;22.28;45.93;100599.03;6578945;27;34323;-92
2022/08/12 07:04:16;;;;;;;2.25;1.50;;;;;;;22.58;45.47;100592.34;6580792;27;33949;-91
2022/08/12 07:07:40;;;;;;;1.95;1.80;;;;;;;22.79;44.79;100591.59;6579314;27;34470;-88
2022/08/12 07:10:57;;;;;;;1.83;1.52;;;;;;;22.93;43.92;100593.94;6586601;27;34176;-87
2022/08/12 07:14:03;;;;;;;4.73;1.90;;;;;;;22.75;44.46;100584.09;6588164;27;34880;-87
2022/08/12 07:17:14;;;;;;;2.15;1.95;;;;;;;22.85;44.21;100593.31;6594624;27;34371;-86
2022/08/12 07:20:18;;;;;;;2.87;1.92;;;;;;;23.12;43.71;100594.50;6593723;27;34927;-85
2022/08/12 07:23:41;;;;;;;2.40;1.90;;;;;;;23.09;43.73;100593.91;6567014;27;33304;-86
2022/08/12 07:26:44;;;;;;;4.80;1.87;;;;;;;23.25;43.53;100592.19;6567058;27;33083;-86
2022/08/12 07:29:48;;;;;;;3.35;1.80;;;;;;;23.47;43.15;100602.31;6566006;27;32721;-87
2022/08/12 07:33:09;;;;;;;2.62;1.50;;;;;;;23.74;42.88;100602.34;6588651;27;34198;-87
2022/08/12 07:36:13;;;;;;;1.70;1.60;;;;;;;23.83;41.98;100599.97;6568443;27;33606;-87
2022/08/12 07:39:16;;;;;;;1.83;1.70;;;;;;;23.89;42.52;100601.69;6590515;27;35024;-86
2022/08/12 07:42:18;;;;;;;6.20;1.80;;;;;;;24.06;42.17;100599.63;6568359;27;33577;-86
2022/08/12 07:45:23;;;;;;;3.15;1.67;;;;;;;24.22;41.48;100600.59;6586686;27;33678;-86
2022/08/12 07:48:26;;;;;;;1.92;1.70;;;;;;;24.08;41.74;100589.19;6583552;27;33776;-86
2022/08/12 07:51:30;;;;;;;4.25;1.70;;;;;;;24.11;41.79;100598.84;6580018;27;33903;-86
2022/08/12 07:54:32;;;;;;;2.03;1.60;;;;;;;24.58;41.19;100590.69;6579743;27;35293;-87
2022/08/12 07:57:58;;;;;;;1.60;1.50;;;;;;;24.28;41.10;100593.19;6580103;27;34838;-86
2022/08/12 08:01:01;;;;;;;1.73;1.62;;;;;;;24.37;41.08;100586.13;6580042;27;34280;-90
2022/08/12 08:07:28;;;;;;;2.85;2.12;;;;;;;24.47;40.90;100588.97;6579738;27;33738;-86
2022/08/12 08:10:33;;;;;;;2.80;1.67;;;;;;;24.79;40.88;100590.81;6580020;27;34078;-87
2022/08/12 08:13:39;;;;;;;2.15;1.60;;;;;;;24.85;40.12;100589.75;6560242;27;32896;-87
2022/08/12 08:16:42;;;;;;;1.95;1.80;;;;;;;24.91;40.90;100588.66;6559668;27;32331;-87
2022/08/12 08:19:51;;;;;;;2.30;1.62;;;;;;;25.16;40.02;100579.72;6560132;27;32856;-87
2022/08/12 08:23:09;;;;;;;2.25;1.50;;;;;;;25.41;39.31;100576.19;6580062;27;34003;-87
2022/08/12 08:26:14;;;;;;;2.83;1.70;;;;;;;25.62;39.16;100579.00;6583411;27;33538;-87
2022/08/12 08:29:20;;;;;;;1.58;1.33;;;;;;;25.62;38.45;100574.31;6562250;27;32966;-87
2022/08/12 08:32:27;;;;;;;3.12;2.20;;;;;;;25.67;39.12;100570.75;6587702;27;33988;-87
2022/08/12 08:35:31;;;;;;;2.10;1.90;;;;;;;25.96;38.34;100573.84;6586211;27;34394;-87
2022/08/12 08:38:48;;;;;;;2.42;1.70;;;;;;;26.23;37.74;100565.25;6568338;27;33644;-86
2022/08/12 08:45:22;;;;;;;2.45;1.62;;;;;;;26.51;37.02;100565.81;6576051;27;32411;-87
2022/08/12 08:48:25;;;;;;;2.12;1.95;;;;;;;26.57;36.73;100556.41;6586258;27;33917;-87
2022/08/12 08:51:30;;;;;;;22.45;2.67;;;;;;;26.38;37.04;100558.87;6565533;27;32701;-87
2022/08/12 08:54:33;;;;;;;1.70;1.60;;;;;;;26.63;36.82;100560.81;6585098;27;35217;-86
2022/08/12 08:57:36;;;;;;;1.90;1.67;;;;;;;26.88;36.55;100563.50;6563852;27;33995;-87
2022/08/12 09:00:50;;;;;;;1.90;1.80;;;;;;;26.84;36.21;100561.56;6560249;27;32011;-89
2022/08/12 09:03:52;;;;;;;1.90;1.80;;;;;;;26.51;36.52;100555.59;6579426;27;34229;-87
2022/08/12 09:07:17;;;;;;;1.80;1.70;;;;;;;26.52;36.76;100554.47;6580444;27;34815;-87
2022/08/12 09:10:41;;;;;;;3.97;1.42;;;;;;;26.74;36.54;100548.63;6581680;27;33976;-86
2022/08/12 09:14:06;;;;;;;1.98;1.60;;;;;;;27.03;36.10;100543.25;6559411;27;33886;-87
2022/08/12 09:17:19;;;;;;;1.80;1.70;;;;;;;27.38;35.19;100535.91;6588693;27;34204;-86
2022/08/12 09:20:26;;;;;;;1.77;1.67;;;;;;;27.07;35.13;100533.28;6594664;27;34806;-86
2022/08/12 09:23:30;;;;;;;2.00;1.90;;;;;;;26.96;35.41;100531.69;6595841;27;34529;-86
2022/08/12 09:26:53;;;;;;;2.10;2.00;;;;;;;26.84;35.64;100529.25;6580135;27;33549;-86
2022/08/12 09:29:58;;;;;;;1.77;1.30;;;;;;;27.18;35.37;100530.50;6579682;27;34348;-87
2022/08/12 09:33:14;;;;;;;1.90;1.70;;;;;;;27.06;35.10;100526.13;6579687;27;33716;-87
2022/08/12 09:36:37;;;;;;;1.58;1.48;;;;;;;27.37;34.82;100532.31;6580156;27;34251;-90
2022/08/12 09:40:00;;;;;;;16.52;2.30;;;;;;;27.94;33.40;100529.16;6580356;27;33959;-87
2022/08/12 09:46:57;;;;;;;1.60;1.50;;;;;;;28.17;32.41;100522.84;6572238;27;33750;-87
2022/08/12 09:49:59;;;;;;;3.37;1.60;;;;;;;28.60;32.01;100513.84;6575348;27;33113;-87
2022/08/12 09:53:09;;;;;;;1.65;1.55;;;;;;;28.81;31.92;100506.09;6589826;27;34585;-87
2022/08/12 09:56:18;;;;;;;2.50;1.30;;;;;;;29.39;30.95;100508.63;6561854;27;32306;-86
2022/08/12 09:59:43;;;;;;;4.68;1.73;;;;;;;29.88;29.68;100500.94;6558634;27;33702;-87
2022/08/12 10:03:16;;;;;;;4.85;1.87;;;;;;;29.61;30.01;100499.72;6578579;27;34173;-86
2022/08/12 10:06:34;;;;;;;;;;;;;;;29.55;30.38;100498.97;6559261;27;33956;-90
2022/08/12 10:09:38;;;;;;;2.05;1.45;;;;;;;29.44;30.64;100497.47;6578789;27;35083;-91
2022/08/12 10:16:44;;;;;;;1.95;1.50;;;;;;;28.98;31.05;100492.56;6559022;27;32330;-87
2022/08/12 10:19:50;;;;;;;3.30;1.95;;;;;;;29.33;31.14;100487.66;6559237;27;32226;-86
2022/08/12 10:22:58;;;;;;;2.12;1.60;;;;;;;29.22;30.76;100484.22;6559162;27;33781;-86
2022/08/12 10:29:44;;;;;;;1.75;1.65;;;;;;;29.69;29.91;100487.09;6558987;27;32407;-86
2022/08/12 10:33:07;;;;;;;2.62;1.40;;;;;;;29.29;29.79;100481.06;6579703;27;34234;-86
2022/08/12 10:36:20;;;;;;;1.42;1.33;;;;;;;29.41;29.97;100475.88;6559310;27;32791;-90
2022/08/12 10:39:41;;;;;;;3.33;1.70;;;;;;;29.09;30.76;100476.66;6578773;27;33986;-87
2022/08/12 10:46:26;;;;;;;1.27;1.10;;;;;;;30.11;29.39;100474.97;6559386;27;32477;-86
2022/08/12 10:49:36;;;;;;;11.35;1.92;;;;;;;30.22;27.88;100473.69;6566048;27;32756;-86
2022/08/12 10:52:59;;;;;;;1.90;1.05;;;;;;;30.53;27.62;100477.81;6582173;27;33553;-86
2022/08/12 10:56:02;;;;;;;3.70;1.40;;;;;;;30.23;27.88;100480.06;6562718;27;33273;-86
2022/08/12 10:59:06;;;;;;;2.75;1.60;;;;;;;29.58;29.55;100484.47;6586098;27;34567;-86
2022/08/12 11:02:13;;;;;;;3.40;1.37;;;;;;;29.20;30.54;100489.25;6560256;27;32450;-86
2022/08/12 11:05:36;;;;;;;3.45;1.75;;;;;;;29.35;29.93;100491.78;6560460;27;32335;-86
2022/08/12 11:08:59;;;;;;;5.65;1.40;;;;;;;30.01;29.50;100480.72;6560946;27;33170;-86
2022/08/12 11:12:09;;;;;;;1.42;1.20;;;;;;;30.04;29.44;100483.72;6562401;27;32323;-86
2022/08/12 11:15:32;;;;;;;2.67;1.42;;;;;;;30.09;29.07;100476.41;6580575;27;33748;-87
2022/08/12 11:18:55;;;;;;;2.72;1.17;;;;;;;30.27;28.55;100479.16;6578924;27;34031;-86
2022/08/12 11:21:59;;;;;;;3.37;1.30;;;;;;;30.65;27.86;100478.09;6578998;27;34763;-86
2022/08/12 11:25:08;;;;;;;1.40;1.30;;;;;;;30.88;28.12;100477.06;6579069;27;34038;-86
2022/08/12 11:28:14;;;;;;;9.40;1.80;;;;;;;31.11;27.67;100461.28;6578694;27;34144;-86
2022/08/12 11:31:17;;;;;;;2.20;1.00;;;;;;;31.01;28.16;100463.47;6579068;27;33753;-86
2022/08/12 11:34:20;;;;;;;2.53;1.70;;;;;;;31.00;27.70;100465.41;6578409;27;34394;-86
2022/08/12 11:37:43;;;;;;;1.45;1.00;;;;;;;30.63;28.21;100463.72;6578941;27;34069;-86
2022/08/12 11:41:03;;;;;;;1.50;1.40;;;;;;;30.49;28.48;100464.53;6578824;27;34936;-86
2022/08/12 11:44:06;;;;;;;1.40;1.30;;;;;;;31.24;27.76;100459.59;6558268;27;32889;-86
2022/08/12 11:47:29;;;;;;;2.30;1.25;;;;;;;32.13;26.54;100451.53;6578275;27;34101;-87
2022/08/12 11:50:33;;;;;;;2.08;1.20;;;;;;;33.13;25.50;100450.84;6578930;27;34908;-86
2022/08/12 11:53:43;;;;;;;1.52;1.42;;;;;;;32.96;25.21;100459.97;6579049;27;34070;-87
2022/08/12 11:57:01;;;;;;;3.45;1.30;;;;;;;32.11;26.63;100451.03;6579179;27;33807;-87
2022/08/12 12:00:24;;;;;;;1.42;1.33;;;;;;;31.72;27.14;100455.38;6559732;27;33330;-87
2022/08/12 12:03:47;;;;;;;2.53;1.40;;;;;;;32.04;26.80;100454.28;6578619;27;33641;-87
2022/08/12 12:06:50;;;;;;;2.67;1.30;;;;;;;32.39;26.41;100448.84;6558853;27;33342;-87
